KMVE/MVE METAR and TAF weather

Enter ICAO airport designator
Station Type Date Time Source
KMVE METAR 2023/01/29 19:35 UTC NOAA

KMVE 291935Z AUTO 29008KT 10SM CLR M15/M20 A3041 RMK AO2


Station Type Date Time Source
KMVE Decoded METAR 2023/01/29 19:35 UTC NOAA

Montevideo, Montevideo-Chippewa County Airport, MN, United States (KMVE) 44-58N 095-43W
Jan 29, 2023 - 02:35 PM EST / 2023.01.29 1935 UTC
Wind: from the WNW (290 degrees) at 9 MPH (8 KT):0
Visibility: 10 mile(s):0
Sky conditions: clear
Temperature: 5 F (-15 C)
Windchill: -9 F (-23 C):2
Dew Point: -4 F (-20 C)
Relative Humidity: 65%
Pressure (altimeter): 30.41 in. Hg (1029 hPa)
ob: KMVE 291935Z AUTO 29008KT 10SM CLR M15/M20 A3041 RMK AO2
cycle: 19

Station Type Date Time Source
KMVE TAF UTC NOAA

Error!

Example: see airport list